Impacts TAF Board
For situational awareness. Not to be used for flight planning purposes.
IDs:

KJFK - New York/Kennedy Int, NY, US

Issued at 1316 UTC 19 Apr 2019
Updated at 1423 UTC 19 Apr 2019
Potential Impact None Slight Moderate High
Time1351Z 19/15Z 19/16Z 19/17Z 19/18Z 19/19Z 19/20Z 19/21Z 19/22Z 19/23Z 20/00Z 20/01Z 20/02Z 20/03Z>>
Type OBS PRVL
  [TEMP]  
PRVL
  [TEMP]  
PRVL
  [TEMP]  
PRVL
  [TEMP]  
PRVL
  [TEMP]  
PRVL
  [TEMP]  
PRVL
  [TEMP]  
PRVL PRVL PRVL PRVL PRVL PRVL
VIS 9 >6
  [5]  
>6
  [5]  
>6
  [5]  
4 4 4 4 4 4 3 3 3 3
CIG 34 25
  [9]  
25
  [9]  
25
  [9]  
15
  [8]  
15
  [8]  
15
  [8]  
15
  [8]  
15 15 10 10 10 10
Cover BKN BKN
  [BKN]  
BKN
  [BKN]  
BKN
  [BKN]  
OVC
  [OVC]  
OVC
  [OVC]  
OVC
  [OVC]  
OVC
  [OVC]  
OVC OVC OVC OVC OVC OVC
FltCat VFR MVFR
  [IFR]  
MVFR
  [IFR]  
MVFR
  [IFR]  
MVFR
  [IFR]  
MVFR
  [IFR]  
MVFR
  [IFR]  
MVFR
  [IFR]  
MVFR MVFR MVFR MVFR MVFR MVFR
WX -- --
  [-SHRA BR]  
--
  [-SHRA BR]  
--
  [-SHRA BR]  
BR
  [-SHRA]  
BR
  [-SHRA]  
BR
  [-SHRA]  
BR
  [-SHRA]  
BR BR -SHRA BR -SHRA BR -SHRA BR -SHRA BR
WDir 180 190
[190]
190
[190]
190
[190]
180
[180]
180
[180]
180
[180]
180
[180]
180 180 180 180 180 180
WSpd 16 20
  [20]  
20
  [20]  
20
  [20]  
21
  [21]  
21
  [21]  
21
  [21]  
21
  [21]  
21 21 24 24 24 24
WGst -- 27
  [27]  
27
  [27]  
27
  [27]  
27
  [27]  
27
  [27]  
27
  [27]  
27
  [27]  
27 27 32 32 32 32
Raw TAF
KJFK 191316Z 1913/2018 19020G27KT P6SM BKN025 WS020/21045KT
  TEMPO 1914/1918 5SM -SHRA BR BKN009
  FM191800 18021G27KT 4SM BR OVC015 WS020/20050KT
  TEMPO 1918/1922 -SHRA OVC008
  FM200000 18024G32KT 3SM -SHRA BR OVC010 WS020/19055KT
  FM200600 18020G28KT 2SM +SHRA BR OVC010 WS020/19055KT
  FM201400 17015G22KT 4SM SHRA BR OVC015 WS020/19050KT


Raw METAR
KJFK 191351Z 18016KT 9SM SCT026 BKN034 BKN160 BKN250 14/13 A2986 RMK AO2 SLP110 T01440128
KJFK 191251Z 19020G25KT 9SM FEW009 SCT028 BKN130 BKN240 14/13 A2984 RMK AO2 PK WND 18028/1207 SLP104 T01440133
KJFK 191151Z 18021KT 7SM FEW007 BKN031 BKN130 BKN240 13/13 A2983 RMK AO2 PK WND 18026/1149 SLP102 BKN031 V SCT T01330128 10133 20122 56005

METAR Board
Radar Display
Forecast Discussion
For situational awareness. Not to be used for flight planning purposes.